sensor_id;sensor_type;location;lat;lon;timestamp;P1;durP1;ratioP1;P2;durP2;ratioP2
39486;SDS011;25173;50.430;18.926;2023-07-28T00:01:58;4.85;;;2.33;;
39486;SDS011;25173;50.430;18.926;2023-07-28T00:04:59;6.00;;;3.03;;
39486;SDS011;25173;50.430;18.926;2023-07-28T00:07:59;5.70;;;3.05;;
39486;SDS011;25173;50.430;18.926;2023-07-28T00:11:00;5.13;;;2.40;;
39486;SDS011;25173;50.430;18.926;2023-07-28T00:14:00;4.25;;;2.95;;
39486;SDS011;25173;50.430;18.926;2023-07-28T00:17:01;5.13;;;2.53;;
39486;SDS011;25173;50.430;18.926;2023-07-28T00:20:02;3.35;;;2.42;;
39486;SDS011;25173;50.430;18.926;2023-07-28T00:23:02;5.68;;;2.28;;
39486;SDS011;25173;50.430;18.926;2023-07-28T00:26:03;2.63;;;2.22;;
39486;SDS011;25173;50.430;18.926;2023-07-28T00:29:03;2.35;;;2.13;;
39486;SDS011;25173;50.430;18.926;2023-07-28T00:32:06;6.03;;;2.50;;
39486;SDS011;25173;50.430;18.926;2023-07-28T00:35:07;3.25;;;2.30;;
39486;SDS011;25173;50.430;18.926;2023-07-28T00:38:08;7.05;;;2.40;;
39486;SDS011;25173;50.430;18.926;2023-07-28T00:41:09;3.67;;;2.50;;
39486;SDS011;25173;50.430;18.926;2023-07-28T00:44:09;5.75;;;2.15;;
39486;SDS011;25173;50.430;18.926;2023-07-28T00:47:10;3.08;;;2.13;;
39486;SDS011;25173;50.430;18.926;2023-07-28T00:50:11;5.57;;;2.03;;
39486;SDS011;25173;50.430;18.926;2023-07-28T00:53:14;2.33;;;1.88;;
39486;SDS011;25173;50.430;18.926;2023-07-28T00:56:15;3.78;;;2.00;;
39486;SDS011;25173;50.430;18.926;2023-07-28T00:59:16;5.38;;;2.35;;
39486;SDS011;25173;50.430;18.926;2023-07-28T01:02:17;3.75;;;2.28;;
39486;SDS011;25173;50.430;18.926;2023-07-28T01:05:20;5.13;;;2.22;;
39486;SDS011;25173;50.430;18.926;2023-07-28T01:08:46;6.95;;;2.83;;
39486;SDS011;25173;50.430;18.926;2023-07-28T01:11:55;2.47;;;2.15;;
39486;SDS011;25173;50.430;18.926;2023-07-28T01:14:57;3.25;;;1.85;;
39486;SDS011;25173;50.430;18.926;2023-07-28T01:17:58;3.22;;;1.92;;
39486;SDS011;25173;50.430;18.926;2023-07-28T01:20:58;4.30;;;2.28;;
39486;SDS011;25173;50.430;18.926;2023-07-28T01:24:14;3.93;;;1.90;;
39486;SDS011;25173;50.430;18.926;2023-07-28T01:27:20;4.63;;;1.85;;
39486;SDS011;25173;50.430;18.926;2023-07-28T01:30:21;2.70;;;2.13;;
39486;SDS011;25173;50.430;18.926;2023-07-28T01:33:26;3.17;;;2.17;;
39486;SDS011;25173;50.430;18.926;2023-07-28T01:36:26;2.75;;;1.90;;
39486;SDS011;25173;50.430;18.926;2023-07-28T01:39:27;3.80;;;2.20;;
39486;SDS011;25173;50.430;18.926;2023-07-28T01:42:28;3.60;;;1.90;;
39486;SDS011;25173;50.430;18.926;2023-07-28T01:45:28;3.88;;;2.00;;
39486;SDS011;25173;50.430;18.926;2023-07-28T01:48:29;3.30;;;1.80;;
39486;SDS011;25173;50.430;18.926;2023-07-28T01:51:29;3.63;;;2.08;;
39486;SDS011;25173;50.430;18.926;2023-07-28T01:54:30;4.00;;;1.85;;
39486;SDS011;25173;50.430;18.926;2023-07-28T01:57:38;3.65;;;2.30;;
39486;SDS011;25173;50.430;18.926;2023-07-28T02:00:40;3.50;;;2.15;;
39486;SDS011;25173;50.430;18.926;2023-07-28T02:03:40;2.50;;;2.17;;
39486;SDS011;25173;50.430;18.926;2023-07-28T02:06:41;2.40;;;1.90;;
39486;SDS011;25173;50.430;18.926;2023-07-28T02:09:42;2.88;;;2.03;;
39486;SDS011;25173;50.430;18.926;2023-07-28T02:12:43;9.23;;;2.30;;
39486;SDS011;25173;50.430;18.926;2023-07-28T02:15:43;3.88;;;2.17;;
39486;SDS011;25173;50.430;18.926;2023-07-28T02:18:44;3.75;;;2.17;;
39486;SDS011;25173;50.430;18.926;2023-07-28T02:21:44;3.58;;;2.05;;
39486;SDS011;25173;50.430;18.926;2023-07-28T02:24:45;4.22;;;1.90;;
39486;SDS011;25173;50.430;18.926;2023-07-28T02:27:45;3.33;;;2.10;;
39486;SDS011;25173;50.430;18.926;2023-07-28T02:30:46;5.85;;;2.35;;
39486;SDS011;25173;50.430;18.926;2023-07-28T02:33:47;3.63;;;2.22;;
39486;SDS011;25173;50.430;18.926;2023-07-28T02:36:47;3.88;;;2.38;;
39486;SDS011;25173;50.430;18.926;2023-07-28T02:39:48;3.20;;;1.90;;
39486;SDS011;25173;50.430;18.926;2023-07-28T02:42:49;2.30;;;1.83;;
39486;SDS011;25173;50.430;18.926;2023-07-28T02:45:53;5.03;;;2.10;;
39486;SDS011;25173;50.430;18.926;2023-07-28T02:48:55;2.53;;;2.15;;
39486;SDS011;25173;50.430;18.926;2023-07-28T02:51:55;2.67;;;1.90;;
39486;SDS011;25173;50.430;18.926;2023-07-28T02:54:56;8.73;;;1.95;;
39486;SDS011;25173;50.430;18.926;2023-07-28T02:57:56;3.65;;;2.28;;
39486;SDS011;25173;50.430;18.926;2023-07-28T03:00:57;4.28;;;2.05;;
39486;SDS011;25173;50.430;18.926;2023-07-28T03:04:06;3.05;;;2.22;;
39486;SDS011;25173;50.430;18.926;2023-07-28T03:07:26;3.58;;;2.50;;
39486;SDS011;25173;50.430;18.926;2023-07-28T03:10:32;4.18;;;2.70;;
39486;SDS011;25173;50.430;18.926;2023-07-28T03:13:33;6.20;;;3.25;;
39486;SDS011;25173;50.430;18.926;2023-07-28T03:16:33;8.68;;;3.50;;
39486;SDS011;25173;50.430;18.926;2023-07-28T03:19:34;9.05;;;3.50;;
39486;SDS011;25173;50.430;18.926;2023-07-28T03:22:36;5.30;;;2.60;;
39486;SDS011;25173;50.430;18.926;2023-07-28T03:25:36;5.97;;;2.50;;
39486;SDS011;25173;50.430;18.926;2023-07-28T03:28:37;5.80;;;2.70;;
39486;SDS011;25173;50.430;18.926;2023-07-28T03:31:37;6.93;;;2.72;;
39486;SDS011;25173;50.430;18.926;2023-07-28T03:34:39;4.30;;;2.70;;
39486;SDS011;25173;50.430;18.926;2023-07-28T03:37:43;6.70;;;2.78;;
39486;SDS011;25173;50.430;18.926;2023-07-28T03:40:44;5.97;;;3.28;;
39486;SDS011;25173;50.430;18.926;2023-07-28T03:43:45;9.23;;;3.47;;
39486;SDS011;25173;50.430;18.926;2023-07-28T03:46:45;9.48;;;3.55;;
39486;SDS011;25173;50.430;18.926;2023-07-28T03:49:47;6.28;;;3.05;;
39486;SDS011;25173;50.430;18.926;2023-07-28T03:52:47;3.40;;;2.50;;
39486;SDS011;25173;50.430;18.926;2023-07-28T03:55:48;5.47;;;3.10;;
39486;SDS011;25173;50.430;18.926;2023-07-28T03:58:48;8.18;;;3.63;;
39486;SDS011;25173;50.430;18.926;2023-07-28T04:01:49;6.00;;;3.00;;
39486;SDS011;25173;50.430;18.926;2023-07-28T04:04:56;11.35;;;3.30;;
39486;SDS011;25173;50.430;18.926;2023-07-28T04:07:57;4.55;;;2.92;;
39486;SDS011;25173;50.430;18.926;2023-07-28T04:10:58;7.82;;;3.08;;
39486;SDS011;25173;50.430;18.926;2023-07-28T04:13:58;7.47;;;2.97;;
39486;SDS011;25173;50.430;18.926;2023-07-28T04:16:59;3.53;;;2.63;;
39486;SDS011;25173;50.430;18.926;2023-07-28T04:20:00;5.10;;;2.38;;
39486;SDS011;25173;50.430;18.926;2023-07-28T04:23:00;4.72;;;2.17;;
39486;SDS011;25173;50.430;18.926;2023-07-28T04:26:05;5.68;;;2.60;;
39486;SDS011;25173;50.430;18.926;2023-07-28T04:29:06;3.20;;;2.42;;
39486;SDS011;25173;50.430;18.926;2023-07-28T04:32:06;2.80;;;2.40;;
39486;SDS011;25173;50.430;18.926;2023-07-28T04:35:07;3.40;;;1.95;;
39486;SDS011;25173;50.430;18.926;2023-07-28T04:38:16;3.53;;;2.05;;
39486;SDS011;25173;50.430;18.926;2023-07-28T04:41:24;3.33;;;2.13;;
39486;SDS011;25173;50.430;18.926;2023-07-28T04:44:27;3.90;;;2.20;;
39486;SDS011;25173;50.430;18.926;2023-07-28T04:47:32;5.25;;;2.60;;
39486;SDS011;25173;50.430;18.926;2023-07-28T04:50:33;4.15;;;2.50;;
39486;SDS011;25173;50.430;18.926;2023-07-28T04:53:57;4.13;;;2.47;;
39486;SDS011;25173;50.430;18.926;2023-07-28T04:57:01;6.68;;;2.95;;
39486;SDS011;25173;50.430;18.926;2023-07-28T05:00:07;5.10;;;3.10;;
39486;SDS011;25173;50.430;18.926;2023-07-28T05:03:08;5.10;;;2.53;;
39486;SDS011;25173;50.430;18.926;2023-07-28T05:06:15;5.40;;;2.67;;
39486;SDS011;25173;50.430;18.926;2023-07-28T05:09:15;4.00;;;2.40;;
39486;SDS011;25173;50.430;18.926;2023-07-28T05:12:16;5.85;;;2.83;;
39486;SDS011;25173;50.430;18.926;2023-07-28T05:15:20;6.65;;;3.05;;
39486;SDS011;25173;50.430;18.926;2023-07-28T05:18:21;7.57;;;2.90;;
39486;SDS011;25173;50.430;18.926;2023-07-28T05:21:34;4.20;;;2.45;;
39486;SDS011;25173;50.430;18.926;2023-07-28T05:24:35;4.30;;;2.72;;
39486;SDS011;25173;50.430;18.926;2023-07-28T05:27:36;4.43;;;2.85;;
39486;SDS011;25173;50.430;18.926;2023-07-28T05:30:36;6.30;;;2.40;;
39486;SDS011;25173;50.430;18.926;2023-07-28T05:33:38;5.03;;;2.55;;
39486;SDS011;25173;50.430;18.926;2023-07-28T05:36:40;5.95;;;2.13;;
39486;SDS011;25173;50.430;18.926;2023-07-28T05:39:40;3.67;;;2.00;;
39486;SDS011;25173;50.430;18.926;2023-07-28T05:42:41;5.00;;;1.95;;
39486;SDS011;25173;50.430;18.926;2023-07-28T05:45:46;5.80;;;2.88;;
39486;SDS011;25173;50.430;18.926;2023-07-28T05:48:47;10.40;;;2.37;;
39486;SDS011;25173;50.430;18.926;2023-07-28T05:51:48;3.97;;;2.42;;
39486;SDS011;25173;50.430;18.926;2023-07-28T05:54:49;2.70;;;2.38;;
39486;SDS011;25173;50.430;18.926;2023-07-28T05:57:50;5.55;;;2.38;;
39486;SDS011;25173;50.430;18.926;2023-07-28T06:00:50;4.53;;;2.38;;
39486;SDS011;25173;50.430;18.926;2023-07-28T06:04:11;3.40;;;2.60;;
39486;SDS011;25173;50.430;18.926;2023-07-28T06:07:17;2.55;;;2.30;;
39486;SDS011;25173;50.430;18.926;2023-07-28T06:10:18;5.32;;;2.80;;
39486;SDS011;25173;50.430;18.926;2023-07-28T06:13:19;9.40;;;2.88;;
39486;SDS011;25173;50.430;18.926;2023-07-28T06:16:19;3.30;;;2.50;;
39486;SDS011;25173;50.430;18.926;2023-07-28T06:19:20;3.80;;;2.83;;
39486;SDS011;25173;50.430;18.926;2023-07-28T06:22:25;3.80;;;2.70;;
39486;SDS011;25173;50.430;18.926;2023-07-28T06:25:25;5.47;;;3.10;;
39486;SDS011;25173;50.430;18.926;2023-07-28T06:28:26;6.57;;;3.22;;
39486;SDS011;25173;50.430;18.926;2023-07-28T06:31:27;3.60;;;2.80;;
39486;SDS011;25173;50.430;18.926;2023-07-28T06:34:28;4.18;;;2.80;;
39486;SDS011;25173;50.430;18.926;2023-07-28T06:37:28;3.90;;;2.85;;
39486;SDS011;25173;50.430;18.926;2023-07-28T06:40:29;4.20;;;2.78;;
39486;SDS011;25173;50.430;18.926;2023-07-28T06:43:30;4.43;;;2.97;;
39486;SDS011;25173;50.430;18.926;2023-07-28T06:46:35;3.63;;;3.20;;
39486;SDS011;25173;50.430;18.926;2023-07-28T06:49:35;4.25;;;2.60;;
39486;SDS011;25173;50.430;18.926;2023-07-28T06:52:36;4.43;;;2.55;;
39486;SDS011;25173;50.430;18.926;2023-07-28T06:55:36;4.70;;;2.63;;
39486;SDS011;25173;50.430;18.926;2023-07-28T06:58:39;5.35;;;2.58;;
39486;SDS011;25173;50.430;18.926;2023-07-28T07:01:40;4.45;;;2.67;;
39486;SDS011;25173;50.430;18.926;2023-07-28T07:04:40;3.90;;;2.88;;
39486;SDS011;25173;50.430;18.926;2023-07-28T07:07:41;5.55;;;2.55;;
39486;SDS011;25173;50.430;18.926;2023-07-28T07:10:47;2.78;;;2.20;;
39486;SDS011;25173;50.430;18.926;2023-07-28T07:13:51;3.22;;;2.30;;
39486;SDS011;25173;50.430;18.926;2023-07-28T07:16:52;3.60;;;2.38;;
39486;SDS011;25173;50.430;18.926;2023-07-28T07:19:52;2.67;;;2.40;;
39486;SDS011;25173;50.430;18.926;2023-07-28T07:22:53;3.42;;;2.28;;
39486;SDS011;25173;50.430;18.926;2023-07-28T07:25:54;3.55;;;2.40;;
39486;SDS011;25173;50.430;18.926;2023-07-28T07:28:55;2.42;;;2.10;;
39486;SDS011;25173;50.430;18.926;2023-07-28T07:31:58;5.13;;;2.90;;
39486;SDS011;25173;50.430;18.926;2023-07-28T07:34:59;3.05;;;2.22;;
39486;SDS011;25173;50.430;18.926;2023-07-28T07:37:59;3.33;;;2.70;;
39486;SDS011;25173;50.430;18.926;2023-07-28T07:41:00;3.22;;;2.15;;
39486;SDS011;25173;50.430;18.926;2023-07-28T07:44:02;3.35;;;2.78;;
39486;SDS011;25173;50.430;18.926;2023-07-28T07:47:11;5.25;;;2.35;;
39486;SDS011;25173;50.430;18.926;2023-07-28T07:50:13;3.33;;;2.33;;
39486;SDS011;25173;50.430;18.926;2023-07-28T07:53:14;3.15;;;2.85;;
39486;SDS011;25173;50.430;18.926;2023-07-28T07:56:15;3.55;;;2.85;;
39486;SDS011;25173;50.430;18.926;2023-07-28T07:59:17;5.97;;;2.47;;
39486;SDS011;25173;50.430;18.926;2023-07-28T08:02:21;3.63;;;2.90;;
39486;SDS011;25173;50.430;18.926;2023-07-28T08:05:22;4.57;;;2.70;;
39486;SDS011;25173;50.430;18.926;2023-07-28T08:08:22;4.20;;;2.67;;
39486;SDS011;25173;50.430;18.926;2023-07-28T08:11:29;4.47;;;3.15;;
39486;SDS011;25173;50.430;18.926;2023-07-28T08:14:36;4.78;;;3.00;;
39486;SDS011;25173;50.430;18.926;2023-07-28T08:17:48;5.47;;;2.72;;
39486;SDS011;25173;50.430;18.926;2023-07-28T08:20:59;5.05;;;3.03;;
39486;SDS011;25173;50.430;18.926;2023-07-28T08:24:27;4.60;;;2.97;;
39486;SDS011;25173;50.430;18.926;2023-07-28T08:27:50;5.18;;;3.35;;
39486;SDS011;25173;50.430;18.926;2023-07-28T08:31:20;4.85;;;3.75;;
39486;SDS011;25173;50.430;18.926;2023-07-28T08:34:20;6.00;;;3.50;;
39486;SDS011;25173;50.430;18.926;2023-07-28T08:37:21;4.60;;;3.75;;
39486;SDS011;25173;50.430;18.926;2023-07-28T08:40:21;4.15;;;3.25;;
39486;SDS011;25173;50.430;18.926;2023-07-28T08:43:22;9.13;;;3.58;;
39486;SDS011;25173;50.430;18.926;2023-07-28T08:46:22;5.53;;;3.45;;
39486;SDS011;25173;50.430;18.926;2023-07-28T08:49:23;5.43;;;4.18;;
39486;SDS011;25173;50.430;18.926;2023-07-28T08:52:24;6.50;;;3.67;;
39486;SDS011;25173;50.430;18.926;2023-07-28T08:55:24;4.70;;;3.50;;
39486;SDS011;25173;50.430;18.926;2023-07-28T08:58:25;3.75;;;3.08;;
39486;SDS011;25173;50.430;18.926;2023-07-28T09:01:25;5.82;;;3.42;;
39486;SDS011;25173;50.430;18.926;2023-07-28T09:04:26;7.47;;;3.30;;
39486;SDS011;25173;50.430;18.926;2023-07-28T09:07:33;5.40;;;3.17;;
39486;SDS011;25173;50.430;18.926;2023-07-28T09:10:42;6.28;;;3.42;;
39486;SDS011;25173;50.430;18.926;2023-07-28T09:13:49;7.30;;;3.45;;
39486;SDS011;25173;50.430;18.926;2023-07-28T09:16:53;6.07;;;3.40;;
39486;SDS011;25173;50.430;18.926;2023-07-28T09:20:06;6.10;;;3.33;;
39486;SDS011;25173;50.430;18.926;2023-07-28T09:23:08;4.88;;;3.33;;
39486;SDS011;25173;50.430;18.926;2023-07-28T09:26:10;4.57;;;3.55;;
39486;SDS011;25173;50.430;18.926;2023-07-28T09:29:20;6.82;;;4.28;;
39486;SDS011;25173;50.430;18.926;2023-07-28T09:32:33;4.30;;;3.35;;
39486;SDS011;25173;50.430;18.926;2023-07-28T09:35:47;4.22;;;3.10;;
39486;SDS011;25173;50.430;18.926;2023-07-28T09:38:55;5.15;;;3.60;;
39486;SDS011;25173;50.430;18.926;2023-07-28T09:42:03;5.45;;;3.15;;
39486;SDS011;25173;50.430;18.926;2023-07-28T09:45:11;4.95;;;3.47;;
39486;SDS011;25173;50.430;18.926;2023-07-28T09:48:12;5.88;;;4.40;;
39486;SDS011;25173;50.430;18.926;2023-07-28T09:51:17;5.72;;;3.47;;
39486;SDS011;25173;50.430;18.926;2023-07-28T09:54:27;14.80;;;4.25;;
39486;SDS011;25173;50.430;18.926;2023-07-28T09:57:30;3.60;;;2.88;;
39486;SDS011;25173;50.430;18.926;2023-07-28T10:00:34;4.68;;;3.13;;
39486;SDS011;25173;50.430;18.926;2023-07-28T10:03:35;4.00;;;3.20;;
39486;SDS011;25173;50.430;18.926;2023-07-28T10:06:37;5.05;;;3.65;;
39486;SDS011;25173;50.430;18.926;2023-07-28T10:09:38;8.38;;;3.80;;
39486;SDS011;25173;50.430;18.926;2023-07-28T10:12:46;6.30;;;3.58;;
39486;SDS011;25173;50.430;18.926;2023-07-28T10:15:49;4.82;;;3.30;;
39486;SDS011;25173;50.430;18.926;2023-07-28T10:18:54;5.00;;;3.55;;
39486;SDS011;25173;50.430;18.926;2023-07-28T10:22:07;4.35;;;3.20;;
39486;SDS011;25173;50.430;18.926;2023-07-28T10:25:10;5.27;;;3.30;;
39486;SDS011;25173;50.430;18.926;2023-07-28T10:28:29;4.80;;;3.22;;
39486;SDS011;25173;50.430;18.926;2023-07-28T10:31:32;3.83;;;3.40;;
39486;SDS011;25173;50.430;18.926;2023-07-28T10:34:33;5.00;;;3.10;;
39486;SDS011;25173;50.430;18.926;2023-07-28T10:37:37;3.15;;;2.78;;
39486;SDS011;25173;50.430;18.926;2023-07-28T10:40:37;5.38;;;3.42;;
39486;SDS011;25173;50.430;18.926;2023-07-28T10:43:39;6.15;;;3.50;;
39486;SDS011;25173;50.430;18.926;2023-07-28T10:46:40;4.78;;;3.10;;
39486;SDS011;25173;50.430;18.926;2023-07-28T10:49:41;4.50;;;3.00;;
39486;SDS011;25173;50.430;18.926;2023-07-28T10:52:42;3.85;;;3.00;;
39486;SDS011;25173;50.430;18.926;2023-07-28T10:55:44;4.00;;;2.80;;
39486;SDS011;25173;50.430;18.926;2023-07-28T10:58:45;4.82;;;3.55;;
39486;SDS011;25173;50.430;18.926;2023-07-28T11:01:45;5.47;;;3.33;;
39486;SDS011;25173;50.430;18.926;2023-07-28T11:04:46;5.47;;;3.13;;
39486;SDS011;25173;50.430;18.926;2023-07-28T11:07:47;4.65;;;2.97;;
39486;SDS011;25173;50.430;18.926;2023-07-28T11:10:49;4.53;;;2.50;;
39486;SDS011;25173;50.430;18.926;2023-07-28T11:13:49;3.83;;;2.50;;
39486;SDS011;25173;50.430;18.926;2023-07-28T11:16:50;4.53;;;2.78;;
39486;SDS011;25173;50.430;18.926;2023-07-28T11:19:51;6.35;;;2.85;;
39486;SDS011;25173;50.430;18.926;2023-07-28T11:22:55;3.78;;;2.88;;
39486;SDS011;25173;50.430;18.926;2023-07-28T11:25:56;3.83;;;2.50;;
39486;SDS011;25173;50.430;18.926;2023-07-28T11:28:57;2.20;;;1.95;;
39486;SDS011;25173;50.430;18.926;2023-07-28T11:31:59;4.97;;;2.40;;
39486;SDS011;25173;50.430;18.926;2023-07-28T11:35:07;2.95;;;2.13;;
39486;SDS011;25173;50.430;18.926;2023-07-28T11:38:11;3.67;;;2.33;;
39486;SDS011;25173;50.430;18.926;2023-07-28T11:41:13;2.85;;;1.55;;
39486;SDS011;25173;50.430;18.926;2023-07-28T11:44:15;7.40;;;1.75;;
39486;SDS011;25173;50.430;18.926;2023-07-28T11:47:19;4.63;;;2.22;;
39486;SDS011;25173;50.430;18.926;2023-07-28T11:50:23;2.40;;;2.20;;
39486;SDS011;25173;50.430;18.926;2023-07-28T11:53:42;4.65;;;2.03;;
39486;SDS011;25173;50.430;18.926;2023-07-28T11:56:43;3.28;;;2.00;;
39486;SDS011;25173;50.430;18.926;2023-07-28T11:59:45;5.00;;;2.00;;
39486;SDS011;25173;50.430;18.926;2023-07-28T12:02:46;3.80;;;1.73;;
39486;SDS011;25173;50.430;18.926;2023-07-28T12:05:59;2.28;;;1.83;;
39486;SDS011;25173;50.430;18.926;2023-07-28T12:09:09;1.98;;;1.77;;
39486;SDS011;25173;50.430;18.926;2023-07-28T12:12:10;1.70;;;1.40;;
39486;SDS011;25173;50.430;18.926;2023-07-28T12:18:21;1.67;;;1.58;;
39486;SDS011;25173;50.430;18.926;2023-07-28T12:21:23;2.28;;;1.80;;
39486;SDS011;25173;50.430;18.926;2023-07-28T12:24:23;1.90;;;1.42;;
39486;SDS011;25173;50.430;18.926;2023-07-28T12:27:25;2.47;;;1.35;;
39486;SDS011;25173;50.430;18.926;2023-07-28T12:30:27;4.10;;;2.05;;
39486;SDS011;25173;50.430;18.926;2023-07-28T12:33:27;1.40;;;1.30;;
39486;SDS011;25173;50.430;18.926;2023-07-28T12:36:28;2.75;;;1.20;;
39486;SDS011;25173;50.430;18.926;2023-07-28T12:39:29;1.88;;;0.85;;
39486;SDS011;25173;50.430;18.926;2023-07-28T12:42:29;3.30;;;1.60;;
39486;SDS011;25173;50.430;18.926;2023-07-28T12:45:30;1.48;;;1.30;;
39486;SDS011;25173;50.430;18.926;2023-07-28T12:48:30;1.98;;;1.02;;
39486;SDS011;25173;50.430;18.926;2023-07-28T12:51:31;2.20;;;1.15;;
39486;SDS011;25173;50.430;18.926;2023-07-28T12:54:31;3.22;;;1.30;;
39486;SDS011;25173;50.430;18.926;2023-07-28T12:57:33;2.72;;;2.10;;
39486;SDS011;25173;50.430;18.926;2023-07-28T13:00:33;1.27;;;1.17;;
39486;SDS011;25173;50.430;18.926;2023-07-28T13:03:34;3.00;;;1.67;;
39486;SDS011;25173;50.430;18.926;2023-07-28T13:06:34;2.00;;;1.33;;
39486;SDS011;25173;50.430;18.926;2023-07-28T13:09:36;1.30;;;1.10;;
39486;SDS011;25173;50.430;18.926;2023-07-28T13:12:37;1.98;;;1.38;;
39486;SDS011;25173;50.430;18.926;2023-07-28T13:15:38;4.18;;;1.48;;
39486;SDS011;25173;50.430;18.926;2023-07-28T13:18:39;1.85;;;1.38;;
39486;SDS011;25173;50.430;18.926;2023-07-28T13:21:40;1.63;;;1.10;;
39486;SDS011;25173;50.430;18.926;2023-07-28T13:24:41;1.80;;;0.98;;
39486;SDS011;25173;50.430;18.926;2023-07-28T13:27:41;1.17;;;1.08;;
39486;SDS011;25173;50.430;18.926;2023-07-28T13:30:42;1.83;;;0.98;;
39486;SDS011;25173;50.430;18.926;2023-07-28T13:33:43;4.13;;;1.33;;
39486;SDS011;25173;50.430;18.926;2023-07-28T13:36:44;1.60;;;0.95;;
39486;SDS011;25173;50.430;18.926;2023-07-28T13:39:44;2.35;;;0.90;;
39486;SDS011;25173;50.430;18.926;2023-07-28T13:42:45;1.25;;;1.15;;
39486;SDS011;25173;50.430;18.926;2023-07-28T13:45:46;1.02;;;0.93;;
39486;SDS011;25173;50.430;18.926;2023-07-28T13:48:46;1.35;;;0.90;;
39486;SDS011;25173;50.430;18.926;2023-07-28T13:51:47;3.03;;;1.52;;
39486;SDS011;25173;50.430;18.926;2023-07-28T13:54:47;1.30;;;1.17;;
39486;SDS011;25173;50.430;18.926;2023-07-28T13:57:48;2.78;;;1.05;;
39486;SDS011;25173;50.430;18.926;2023-07-28T14:00:49;1.67;;;1.40;;
39486;SDS011;25173;50.430;18.926;2023-07-28T14:03:49;1.83;;;1.10;;
39486;SDS011;25173;50.430;18.926;2023-07-28T14:06:50;2.10;;;1.33;;
39486;SDS011;25173;50.430;18.926;2023-07-28T14:09:51;1.35;;;0.95;;
39486;SDS011;25173;50.430;18.926;2023-07-28T14:12:51;1.08;;;1.00;;
39486;SDS011;25173;50.430;18.926;2023-07-28T14:15:52;1.23;;;0.75;;
39486;SDS011;25173;50.430;18.926;2023-07-28T14:18:52;1.20;;;1.10;;
39486;SDS011;25173;50.430;18.926;2023-07-28T14:21:53;0.85;;;0.85;;
39486;SDS011;25173;50.430;18.926;2023-07-28T14:24:53;1.60;;;1.08;;
39486;SDS011;25173;50.430;18.926;2023-07-28T14:27:54;2.20;;;1.70;;
39486;SDS011;25173;50.430;18.926;2023-07-28T14:30:55;3.83;;;1.45;;
39486;SDS011;25173;50.430;18.926;2023-07-28T14:33:55;1.92;;;1.30;;
39486;SDS011;25173;50.430;18.926;2023-07-28T14:36:56;1.70;;;1.30;;
39486;SDS011;25173;50.430;18.926;2023-07-28T14:39:56;1.88;;;1.42;;
39486;SDS011;25173;50.430;18.926;2023-07-28T14:42:57;2.83;;;1.40;;
39486;SDS011;25173;50.430;18.926;2023-07-28T14:45:58;1.20;;;1.10;;
39486;SDS011;25173;50.430;18.926;2023-07-28T14:48:58;1.20;;;1.00;;
39486;SDS011;25173;50.430;18.926;2023-07-28T14:51:59;2.92;;;1.55;;
39486;SDS011;25173;50.430;18.926;2023-07-28T14:54:59;6.40;;;1.30;;
39486;SDS011;25173;50.430;18.926;2023-07-28T14:58:00;2.30;;;1.10;;
39486;SDS011;25173;50.430;18.926;2023-07-28T15:01:01;4.95;;;1.70;;
39486;SDS011;25173;50.430;18.926;2023-07-28T15:04:02;2.17;;;1.13;;
39486;SDS011;25173;50.430;18.926;2023-07-28T15:07:04;1.73;;;1.30;;
39486;SDS011;25173;50.430;18.926;2023-07-28T15:10:05;1.73;;;0.98;;
39486;SDS011;25173;50.430;18.926;2023-07-28T15:13:06;1.85;;;1.02;;
39486;SDS011;25173;50.430;18.926;2023-07-28T15:16:07;1.52;;;1.27;;
39486;SDS011;25173;50.430;18.926;2023-07-28T15:19:07;2.17;;;1.20;;
39486;SDS011;25173;50.430;18.926;2023-07-28T15:22:08;3.30;;;1.25;;
39486;SDS011;25173;50.430;18.926;2023-07-28T15:25:12;3.08;;;1.30;;
39486;SDS011;25173;50.430;18.926;2023-07-28T15:28:25;1.65;;;1.35;;
39486;SDS011;25173;50.430;18.926;2023-07-28T15:31:26;2.85;;;1.20;;
39486;SDS011;25173;50.430;18.926;2023-07-28T15:34:27;1.00;;;1.00;;
39486;SDS011;25173;50.430;18.926;2023-07-28T15:37:29;2.15;;;1.38;;
39486;SDS011;25173;50.430;18.926;2023-07-28T15:40:30;4.35;;;1.52;;
39486;SDS011;25173;50.430;18.926;2023-07-28T15:43:30;4.78;;;1.30;;
39486;SDS011;25173;50.430;18.926;2023-07-28T15:46:31;3.05;;;1.10;;
39486;SDS011;25173;50.430;18.926;2023-07-28T15:49:31;2.15;;;1.40;;
39486;SDS011;25173;50.430;18.926;2023-07-28T15:52:32;1.52;;;1.27;;
39486;SDS011;25173;50.430;18.926;2023-07-28T15:55:32;3.00;;;1.58;;
39486;SDS011;25173;50.430;18.926;2023-07-28T16:02:00;2.33;;;1.40;;
39486;SDS011;25173;50.430;18.926;2023-07-28T16:05:01;6.53;;;1.45;;
39486;SDS011;25173;50.430;18.926;2023-07-28T16:08:01;2.80;;;1.83;;
39486;SDS011;25173;50.430;18.926;2023-07-28T16:11:02;3.58;;;1.20;;
39486;SDS011;25173;50.430;18.926;2023-07-28T16:14:04;3.72;;;1.25;;
39486;SDS011;25173;50.430;18.926;2023-07-28T16:17:05;5.22;;;1.30;;
39486;SDS011;25173;50.430;18.926;2023-07-28T16:20:06;3.05;;;1.58;;
39486;SDS011;25173;50.430;18.926;2023-07-28T16:23:07;3.10;;;1.50;;
39486;SDS011;25173;50.430;18.926;2023-07-28T16:26:07;2.28;;;1.67;;
39486;SDS011;25173;50.430;18.926;2023-07-28T16:29:09;4.28;;;1.80;;
39486;SDS011;25173;50.430;18.926;2023-07-28T16:32:10;4.32;;;1.70;;
39486;SDS011;25173;50.430;18.926;2023-07-28T16:35:11;1.42;;;0.90;;
39486;SDS011;25173;50.430;18.926;2023-07-28T16:38:12;2.17;;;1.00;;
39486;SDS011;25173;50.430;18.926;2023-07-28T16:41:13;1.33;;;1.02;;
39486;SDS011;25173;50.430;18.926;2023-07-28T16:44:14;1.88;;;1.10;;
39486;SDS011;25173;50.430;18.926;2023-07-28T16:47:15;1.77;;;0.98;;
39486;SDS011;25173;50.430;18.926;2023-07-28T16:50:16;4.65;;;2.33;;
39486;SDS011;25173;50.430;18.926;2023-07-28T16:53:17;3.97;;;1.27;;
39486;SDS011;25173;50.430;18.926;2023-07-28T16:56:20;2.88;;;1.80;;
39486;SDS011;25173;50.430;18.926;2023-07-28T16:59:21;2.20;;;1.85;;
39486;SDS011;25173;50.430;18.926;2023-07-28T17:02:21;1.35;;;1.17;;
39486;SDS011;25173;50.430;18.926;2023-07-28T17:05:22;1.88;;;1.20;;
39486;SDS011;25173;50.430;18.926;2023-07-28T17:08:25;1.20;;;0.98;;
39486;SDS011;25173;50.430;18.926;2023-07-28T17:11:25;2.90;;;1.83;;
39486;SDS011;25173;50.430;18.926;2023-07-28T17:14:26;3.00;;;2.08;;
39486;SDS011;25173;50.430;18.926;2023-07-28T17:17:27;4.82;;;1.90;;
39486;SDS011;25173;50.430;18.926;2023-07-28T17:20:33;3.00;;;2.15;;
39486;SDS011;25173;50.430;18.926;2023-07-28T17:23:34;6.95;;;2.58;;
39486;SDS011;25173;50.430;18.926;2023-07-28T17:26:35;2.60;;;1.80;;
39486;SDS011;25173;50.430;18.926;2023-07-28T17:29:35;2.78;;;2.20;;
39486;SDS011;25173;50.430;18.926;2023-07-28T17:32:36;4.07;;;3.08;;
39486;SDS011;25173;50.430;18.926;2023-07-28T17:35:37;3.33;;;2.67;;
39486;SDS011;25173;50.430;18.926;2023-07-28T17:38:37;7.10;;;3.60;;
39486;SDS011;25173;50.430;18.926;2023-07-28T17:41:38;5.22;;;3.33;;
39486;SDS011;25173;50.430;18.926;2023-07-28T17:44:39;8.63;;;3.63;;
39486;SDS011;25173;50.430;18.926;2023-07-28T17:47:39;4.53;;;3.45;;
39486;SDS011;25173;50.430;18.926;2023-07-28T17:50:40;7.80;;;3.25;;
39486;SDS011;25173;50.430;18.926;2023-07-28T17:53:40;7.80;;;3.22;;
39486;SDS011;25173;50.430;18.926;2023-07-28T17:56:41;3.47;;;2.53;;
39486;SDS011;25173;50.430;18.926;2023-07-28T17:59:42;6.50;;;3.95;;
39486;SDS011;25173;50.430;18.926;2023-07-28T18:02:43;7.82;;;3.65;;
39486;SDS011;25173;50.430;18.926;2023-07-28T18:05:43;11.43;;;4.97;;
39486;SDS011;25173;50.430;18.926;2023-07-28T18:08:44;10.95;;;4.30;;